Terminal Aerodrome Forecast
Issued by NWS Nashville, TN

Current Version | Previous Version | Text Only | Print | Product List | Glossary On
Versions: 1 2 3 4 5 6 7 8 9 10 11 12 13 14 15 16 17 18 19 20 21 22 23 24 25
000
FTUS44 KOHX 312300
TAFBNA
TAF
KBNA 312338Z 0100/0124 33015G25KT P6SM SCT035 BKN060
      TEMPO 0100/0102 BKN035
     FM010200 33015G25KT P6SM BKN030
      TEMPO 0108/0112 BKN020
     FM011600 35015KT P6SM SCT050=

USA.gov is the U.S. government's official web portal to all federal, state and local government web resources and services.